createdAt,value
2018-06-13T00:00:49.448Z,0.00
2018-06-13T00:01:49.505Z,0.00
2018-06-13T00:02:49.494Z,0.00
2018-06-13T00:03:49.500Z,0.00
2018-06-13T00:04:49.524Z,0.00
2018-06-13T00:05:49.493Z,0.00
2018-06-13T00:06:49.409Z,0.00
2018-06-13T00:07:49.510Z,0.00
2018-06-13T00:08:49.579Z,0.00
2018-06-13T00:09:49.532Z,0.00
2018-06-13T00:10:49.511Z,0.00
2018-06-13T00:11:50.267Z,0.00
2018-06-13T00:12:49.526Z,0.00
2018-06-13T00:13:49.443Z,0.00
2018-06-13T00:14:49.478Z,0.00
2018-06-13T00:15:49.484Z,0.00
2018-06-13T00:16:49.501Z,0.00
2018-06-13T00:17:49.514Z,0.00
2018-06-13T00:18:49.477Z,0.00
2018-06-13T00:19:49.483Z,0.00
2018-06-13T00:20:49.517Z,0.00
2018-06-13T00:21:49.527Z,0.00
2018-06-13T00:22:49.554Z,0.00
2018-06-13T00:23:49.448Z,0.00
2018-06-13T00:24:49.446Z,0.00
2018-06-13T00:25:50.279Z,0.00
2018-06-13T00:26:49.456Z,0.00
2018-06-13T00:27:49.432Z,0.00
2018-06-13T00:28:49.363Z,0.00
2018-06-13T00:29:49.469Z,0.00
2018-06-13T00:30:49.534Z,0.00
2018-06-13T00:31:49.516Z,0.00
2018-06-13T00:32:50.274Z,0.00
2018-06-13T00:33:49.486Z,0.00
2018-06-13T00:34:49.520Z,0.00
2018-06-13T00:35:49.522Z,0.00
2018-06-13T00:36:49.463Z,0.00
2018-06-13T00:37:49.435Z,0.00
2018-06-13T00:38:49.463Z,0.00
2018-06-13T00:39:49.451Z,0.00
2018-06-13T00:40:49.450Z,0.00
2018-06-13T00:41:49.462Z,0.00
2018-06-13T00:42:49.470Z,0.00
2018-06-13T00:43:49.545Z,0.00
2018-06-13T00:44:49.481Z,0.00
2018-06-13T00:45:49.486Z,0.00
2018-06-13T00:46:49.471Z,0.00
2018-06-13T00:47:49.507Z,0.00
2018-06-13T00:48:49.542Z,0.00
2018-06-13T00:49:49.436Z,0.00
2018-06-13T00:50:49.446Z,0.00
2018-06-13T00:51:49.413Z,0.00
2018-06-13T00:52:50.329Z,0.00
2018-06-13T00:53:49.465Z,0.00
2018-06-13T00:54:50.275Z,0.00
2018-06-13T00:55:50.275Z,0.00
2018-06-13T00:56:50.324Z,0.00
2018-06-13T00:57:49.441Z,0.00
2018-06-13T00:58:49.476Z,0.00
2018-06-13T00:59:49.523Z,0.00
2018-06-13T01:00:49.497Z,0.00
2018-06-13T01:01:49.507Z,0.00
2018-06-13T01:02:49.376Z,0.00
2018-06-13T01:03:49.412Z,0.00
2018-06-13T01:04:49.412Z,0.00
2018-06-13T01:05:49.395Z,0.00
2018-06-13T01:06:50.286Z,0.00
2018-06-13T01:07:49.443Z,0.00
2018-06-13T01:08:49.412Z,0.00
2018-06-13T01:09:49.428Z,0.00
2018-06-13T01:10:49.446Z,0.00
2018-06-13T01:11:49.519Z,0.00
2018-06-13T01:12:49.500Z,0.00
2018-06-13T01:13:49.574Z,0.00
2018-06-13T01:14:49.517Z,0.00
2018-06-13T01:15:49.477Z,0.00
2018-06-13T01:16:49.411Z,0.00
2018-06-13T01:17:49.510Z,0.00
2018-06-13T01:18:50.284Z,0.00
2018-06-13T01:19:49.446Z,0.00
2018-06-13T01:20:49.430Z,0.00
2018-06-13T01:21:50.280Z,0.00
2018-06-13T01:22:49.418Z,0.00
2018-06-13T01:23:49.454Z,0.00
2018-06-13T01:24:49.482Z,0.00
2018-06-13T01:25:49.453Z,0.00
2018-06-13T01:26:49.484Z,0.00
2018-06-13T01:27:49.474Z,0.00
2018-06-13T01:28:49.429Z,0.00
2018-06-13T01:29:49.388Z,0.00
2018-06-13T01:30:49.403Z,0.00
2018-06-13T01:31:49.420Z,0.00
2018-06-13T01:32:49.438Z,0.00
2018-06-13T01:33:49.439Z,0.00
2018-06-13T01:34:49.512Z,0.00
2018-06-13T01:35:49.433Z,0.00
2018-06-13T01:36:49.526Z,0.00
2018-06-13T01:37:49.472Z,0.00
2018-06-13T01:38:49.537Z,0.00
2018-06-13T01:39:49.451Z,0.00
2018-06-13T01:40:50.286Z,0.00
2018-06-13T01:41:49.406Z,0.00
2018-06-13T01:42:49.403Z,0.00
2018-06-13T01:43:49.412Z,0.00
2018-06-13T01:44:49.404Z,0.00
2018-06-13T01:45:49.403Z,0.00
2018-06-13T01:46:49.408Z,0.00
2018-06-13T01:47:49.424Z,0.00
2018-06-13T01:48:49.411Z,0.00
2018-06-13T01:49:49.438Z,0.00
2018-06-13T01:50:49.427Z,0.00
2018-06-13T01:51:49.438Z,0.00
2018-06-13T01:52:49.414Z,0.00
2018-06-13T01:53:49.415Z,0.00
2018-06-13T01:54:49.420Z,0.00
2018-06-13T01:55:49.427Z,0.00
2018-06-13T01:56:49.416Z,0.00
2018-06-13T01:57:49.447Z,0.00
2018-06-13T01:58:49.419Z,0.00
2018-06-13T01:59:49.423Z,0.00
2018-06-13T02:00:49.443Z,0.00
2018-06-13T02:01:49.421Z,0.00
2018-06-13T02:02:49.421Z,0.00
2018-06-13T02:03:49.431Z,0.00
2018-06-13T02:04:49.480Z,0.00
2018-06-13T02:05:49.425Z,0.00
2018-06-13T02:06:49.425Z,0.00
2018-06-13T02:07:49.426Z,0.00
2018-06-13T02:08:49.432Z,0.00
2018-06-13T02:09:51.277Z,0.00
2018-06-13T02:10:49.429Z,0.00
2018-06-13T02:11:49.433Z,0.00
2018-06-13T02:12:49.434Z,0.00
2018-06-13T02:13:49.433Z,0.00
2018-06-13T02:14:49.465Z,0.00
2018-06-13T02:15:49.437Z,0.00
2018-06-13T02:16:49.472Z,0.00
2018-06-13T02:17:49.452Z,0.00
2018-06-13T02:18:49.438Z,0.00
2018-06-13T02:19:49.471Z,0.00
2018-06-13T02:20:49.442Z,0.00
2018-06-13T02:21:49.506Z,0.00
2018-06-13T02:22:49.441Z,0.00
2018-06-13T02:23:49.442Z,0.00
2018-06-13T02:24:49.444Z,0.00
2018-06-13T02:25:49.445Z,0.00
2018-06-13T02:26:49.465Z,0.00
2018-06-13T02:27:49.450Z,0.00
2018-06-13T02:28:49.447Z,0.00
2018-06-13T02:29:49.446Z,0.00
2018-06-13T02:30:49.460Z,0.00
2018-06-13T02:31:49.454Z,0.00
2018-06-13T02:32:49.449Z,0.00
2018-06-13T02:33:49.450Z,0.00
2018-06-13T02:34:49.480Z,0.00
2018-06-13T02:35:49.459Z,0.00
2018-06-13T02:36:49.452Z,0.00
2018-06-13T02:37:49.460Z,0.00
2018-06-13T02:38:49.454Z,0.00
2018-06-13T02:39:49.456Z,0.00
2018-06-13T02:40:49.484Z,0.00
2018-06-13T02:41:49.489Z,0.00
2018-06-13T02:42:49.458Z,0.00
2018-06-13T02:43:49.457Z,0.00
2018-06-13T02:44:49.499Z,0.00
2018-06-13T02:45:49.471Z,0.00
2018-06-13T02:46:49.462Z,0.00
2018-06-13T02:47:49.487Z,0.00
2018-06-13T02:48:49.470Z,0.00
2018-06-13T02:49:49.497Z,0.00
2018-06-13T02:50:49.463Z,4.00
2018-06-13T02:51:49.465Z,4.00
2018-06-13T02:52:49.541Z,0.00
2018-06-13T02:53:49.483Z,0.00
2018-06-13T02:54:49.522Z,4.00
2018-06-13T02:55:49.467Z,4.00
2018-06-13T02:56:49.521Z,0.00
2018-06-13T02:57:49.498Z,4.00
2018-06-13T02:58:49.469Z,4.00
2018-06-13T02:59:49.527Z,4.00
2018-06-13T03:00:49.470Z,8.00
2018-06-13T03:01:49.472Z,8.00
2018-06-13T03:02:49.477Z,8.00
2018-06-13T03:03:49.479Z,8.00
2018-06-13T03:04:49.492Z,8.00
2018-06-13T03:05:49.476Z,12.00
2018-06-13T03:06:51.293Z,12.00
2018-06-13T03:07:49.474Z,12.00
2018-06-13T03:08:49.482Z,12.00
2018-06-13T03:09:49.477Z,12.00
2018-06-13T03:10:49.483Z,16.00
2018-06-13T03:11:49.491Z,16.00
2018-06-13T03:12:49.477Z,16.00
2018-06-13T03:13:49.478Z,16.00
2018-06-13T03:14:49.479Z,20.00
2018-06-13T03:15:49.482Z,20.00
2018-06-13T03:16:49.487Z,20.00
2018-06-13T03:17:51.291Z,20.00
2018-06-13T03:18:49.504Z,20.00
2018-06-13T03:19:49.483Z,20.00
2018-06-13T03:20:49.618Z,20.00
2018-06-13T03:21:49.487Z,24.00
2018-06-13T03:22:49.485Z,24.00
2018-06-13T03:23:49.489Z,24.00
2018-06-13T03:24:49.489Z,28.00
2018-06-13T03:25:49.491Z,32.00
2018-06-13T03:26:49.489Z,32.00
2018-06-13T03:27:49.484Z,36.00
2018-06-13T03:28:49.489Z,40.00
2018-06-13T03:29:49.493Z,40.00
2018-06-13T03:30:49.496Z,44.00
2018-06-13T03:31:49.491Z,48.00
2018-06-13T03:32:49.489Z,48.00
2018-06-13T03:33:49.493Z,52.00
2018-06-13T03:34:49.491Z,56.00
2018-06-13T03:35:49.497Z,60.00
2018-06-13T03:36:49.496Z,60.00
2018-06-13T03:37:49.492Z,64.00
2018-06-13T03:38:49.516Z,64.00
2018-06-13T03:39:49.493Z,64.00
2018-06-13T03:40:49.498Z,68.00
2018-06-13T03:41:49.492Z,72.00
2018-06-13T03:42:49.495Z,72.00
2018-06-13T03:43:49.517Z,76.00
2018-06-13T03:44:51.300Z,76.00
2018-06-13T03:45:49.496Z,76.00
2018-06-13T03:46:49.498Z,76.00
2018-06-13T03:47:49.499Z,80.00
2018-06-13T03:48:49.500Z,80.00
2018-06-13T03:49:49.520Z,84.00
2018-06-13T03:50:49.508Z,84.00
2018-06-13T03:51:49.502Z,92.00
2018-06-13T03:52:49.509Z,96.00
2018-06-13T03:53:49.527Z,96.00
2018-06-13T03:54:49.501Z,100.00
2018-06-13T03:55:49.504Z,108.00
2018-06-13T03:56:49.503Z,112.00
2018-06-13T03:57:49.503Z,116.00
2018-06-13T03:58:49.506Z,120.00
2018-06-13T03:59:49.529Z,128.00
2018-06-13T04:00:49.544Z,136.00
2018-06-13T04:01:49.581Z,144.00
2018-06-13T04:02:49.505Z,152.00
2018-06-13T04:03:49.513Z,152.00
2018-06-13T04:04:49.537Z,160.00
2018-06-13T04:05:49.509Z,164.00
2018-06-13T04:06:49.507Z,168.00
2018-06-13T04:07:49.509Z,176.00
2018-06-13T04:08:51.299Z,184.00
2018-06-13T04:09:51.338Z,192.00
2018-06-13T04:10:51.305Z,196.00
2018-06-13T04:11:49.537Z,196.00
2018-06-13T04:12:49.528Z,208.00
2018-06-13T04:13:49.532Z,216.00
2018-06-13T04:14:49.513Z,224.00
2018-06-13T04:15:49.511Z,236.00
2018-06-13T04:16:49.601Z,244.00
2018-06-13T04:17:51.331Z,248.00
2018-06-13T04:18:49.516Z,252.00
2018-06-13T04:19:49.537Z,260.00
2018-06-13T04:20:49.514Z,272.00
2018-06-13T04:21:49.517Z,284.00
2018-06-13T04:22:49.516Z,292.00
2018-06-13T04:23:49.527Z,300.00
2018-06-13T04:24:49.543Z,308.00
2018-06-13T04:25:49.516Z,312.00
2018-06-13T04:26:49.517Z,312.00
2018-06-13T04:27:49.519Z,316.00
2018-06-13T04:28:49.521Z,320.00
2018-06-13T04:29:49.560Z,328.00
2018-06-13T04:30:49.524Z,348.00
2018-06-13T04:31:49.523Z,372.00
2018-06-13T04:32:49.526Z,388.00
2018-06-13T04:33:49.563Z,404.00
2018-06-13T04:34:49.526Z,420.00
2018-06-13T04:35:49.543Z,428.00
2018-06-13T04:36:49.529Z,444.00
2018-06-13T04:37:49.530Z,456.00
2018-06-13T04:38:49.531Z,472.00
2018-06-13T04:39:49.577Z,476.00
2018-06-13T04:40:49.555Z,476.00
2018-06-13T04:41:49.535Z,480.00
2018-06-13T04:42:49.527Z,484.00
2018-06-13T04:43:49.534Z,496.00
2018-06-13T04:44:49.527Z,508.00
2018-06-13T04:45:49.529Z,524.00
2018-06-13T04:46:49.534Z,536.00
2018-06-13T04:47:49.524Z,544.00
2018-06-13T04:48:51.303Z,552.00
2018-06-13T04:49:49.528Z,568.00
2018-06-13T04:50:49.538Z,584.00
2018-06-13T04:51:49.532Z,608.00
2018-06-13T04:52:49.533Z,624.00
2018-06-13T04:53:49.533Z,656.00
2018-06-13T04:54:49.539Z,680.00
2018-06-13T04:55:49.560Z,716.00
2018-06-13T04:56:49.538Z,752.00
2018-06-13T04:57:49.533Z,768.00
2018-06-13T04:58:49.533Z,792.00
2018-06-13T04:59:49.536Z,812.00
2018-06-13T05:00:49.539Z,824.00
2018-06-13T05:03:36.274Z,888.00
2018-06-13T05:04:36.385Z,904.00
2018-06-13T05:06:29.771Z,932.00
2018-06-13T05:07:29.229Z,944.00
2018-06-13T05:08:30.190Z,952.00
2018-06-13T05:09:30.861Z,992.00
2018-06-13T05:10:30.259Z,1028.00
2018-06-13T05:11:29.223Z,1060.00
2018-06-13T05:12:29.175Z,1096.00
2018-06-13T05:13:29.205Z,1140.00
2018-06-13T05:14:28.790Z,1188.00
2018-06-13T05:15:28.773Z,1232.00
2018-06-13T05:16:28.790Z,1304.00
2018-06-13T05:17:28.841Z,1328.00
2018-06-13T05:18:28.780Z,1292.00
2018-06-13T05:20:23.124Z,1296.00
2018-06-13T05:21:31.186Z,1328.00
2018-06-13T05:23:16.010Z,1388.00
2018-06-13T05:24:15.972Z,1384.00
2018-06-13T05:26:08.893Z,1476.00
2018-06-13T05:27:08.911Z,1492.00
2018-06-13T05:29:02.421Z,1552.00
2018-06-13T05:30:02.402Z,1484.00
2018-06-13T05:31:55.153Z,1464.00
2018-06-13T05:32:55.237Z,1512.00
2018-06-13T05:34:48.123Z,1608.00
2018-06-13T05:35:48.109Z,1688.00
2018-06-13T05:37:41.582Z,2164.00
2018-06-13T05:38:41.515Z,1824.00
2018-06-13T05:40:34.817Z,1984.00
2018-06-13T05:41:34.935Z,1768.00
2018-06-13T05:43:28.826Z,1716.00
2018-06-13T05:44:29.308Z,1688.00
2018-06-13T05:45:28.714Z,1704.00
2018-06-13T05:46:28.677Z,1664.00
2018-06-13T05:47:28.433Z,1696.00
2018-06-13T05:48:28.745Z,1728.00
2018-06-13T05:49:28.317Z,1716.00
2018-06-13T05:50:28.321Z,1776.00
2018-06-13T05:51:28.319Z,1808.00
2018-06-13T05:52:28.323Z,1828.00
2018-06-13T05:53:28.323Z,1840.00
2018-06-13T05:54:28.324Z,1860.00
2018-06-13T05:55:28.323Z,1920.00
2018-06-13T05:56:28.329Z,1972.00
2018-06-13T05:57:28.330Z,2012.00
2018-06-13T05:58:28.365Z,1972.00
2018-06-13T05:59:28.339Z,1916.00
2018-06-13T06:00:28.340Z,1904.00
2018-06-13T06:01:28.448Z,1860.00
2018-06-13T06:02:28.343Z,1896.00
2018-06-13T06:03:28.336Z,1944.00
2018-06-13T06:04:28.342Z,2092.00
2018-06-13T06:05:28.341Z,2272.00
2018-06-13T06:06:28.346Z,2444.00
2018-06-13T06:07:28.349Z,2780.00
2018-06-13T06:08:28.351Z,2580.00
2018-06-13T06:09:28.352Z,2488.00
2018-06-13T06:10:28.443Z,2240.00
2018-06-13T06:11:28.357Z,2140.00
2018-06-13T06:12:28.361Z,2104.00
2018-06-13T06:13:28.365Z,2088.00
2018-06-13T06:14:28.361Z,2064.00
2018-06-13T06:15:28.362Z,2044.00
2018-06-13T06:16:28.364Z,2008.00
2018-06-13T06:17:28.373Z,2000.00
2018-06-13T06:18:28.372Z,1988.00
2018-06-13T06:19:28.368Z,2016.00
2018-06-13T06:20:28.370Z,2032.00
2018-06-13T06:21:28.373Z,2032.00
2018-06-13T06:22:28.373Z,1916.00
2018-06-13T06:23:28.384Z,1768.00
2018-06-13T06:24:28.380Z,1708.00
2018-06-13T06:25:28.379Z,1548.00
2018-06-13T06:26:28.389Z,1472.00
2018-06-13T06:27:28.386Z,1292.00
2018-06-13T06:28:28.393Z,1252.00
2018-06-13T06:29:28.393Z,1232.00
2018-06-13T06:30:28.392Z,1272.00
2018-06-13T06:31:28.425Z,1324.00
2018-06-13T06:32:28.397Z,1364.00
2018-06-13T06:33:28.401Z,1384.00
2018-06-13T06:34:28.405Z,1360.00
2018-06-13T06:35:28.404Z,1328.00
2018-06-13T06:36:28.405Z,1336.00
2018-06-13T06:37:28.405Z,1364.00
2018-06-13T06:38:28.446Z,1348.00
2018-06-13T06:39:28.416Z,1260.00
2018-06-13T06:40:28.417Z,1164.00
2018-06-13T06:41:28.416Z,1144.00
2018-06-13T06:42:28.418Z,1176.00
2018-06-13T06:43:28.420Z,1208.00
2018-06-13T06:44:28.419Z,1168.00
2018-06-13T06:45:28.423Z,1096.00
2018-06-13T06:46:28.427Z,1048.00
2018-06-13T06:47:28.428Z,1028.00
2018-06-13T06:48:28.432Z,1008.00
2018-06-13T06:49:28.430Z,980.00
2018-06-13T06:50:28.446Z,956.00
2018-06-13T06:51:28.438Z,916.00
2018-06-13T06:52:28.438Z,968.00
2018-06-13T06:53:28.438Z,1044.00
2018-06-13T06:54:28.442Z,1148.00
2018-06-13T06:55:28.510Z,1236.00
2018-06-13T06:56:28.489Z,1292.00
2018-06-13T06:57:28.444Z,1352.00
2018-06-13T06:58:28.446Z,1424.00
2018-06-13T06:59:28.457Z,1484.00
2018-06-13T07:00:28.460Z,1532.00
2018-06-13T07:01:28.466Z,1540.00
2018-06-13T07:02:28.469Z,1536.00
2018-06-13T07:03:28.469Z,1548.00
2018-06-13T07:04:28.487Z,1520.00
2018-06-13T07:05:28.465Z,1492.00
2018-06-13T07:06:28.493Z,1464.00
2018-06-13T07:07:28.513Z,1432.00
2018-06-13T07:08:28.473Z,1404.00
2018-06-13T07:09:28.575Z,1376.00
2018-06-13T07:10:28.635Z,1356.00
2018-06-13T07:11:28.497Z,1344.00
2018-06-13T07:12:28.546Z,1300.00
2018-06-13T07:13:30.476Z,1296.00
2018-06-13T07:14:29.510Z,1272.00
2018-06-13T07:15:28.484Z,1240.00
2018-06-13T07:16:28.495Z,1196.00
2018-06-13T07:17:28.507Z,1160.00
2018-06-13T07:18:28.505Z,1156.00
2018-06-13T07:19:28.502Z,1172.00
2018-06-13T07:20:28.493Z,1136.00
2018-06-13T07:21:28.498Z,1080.00
2018-06-13T07:22:28.500Z,1040.00
2018-06-13T07:23:28.506Z,1016.00
2018-06-13T07:24:28.508Z,956.00
2018-06-13T07:25:28.553Z,896.00
2018-06-13T07:26:30.496Z,828.00
2018-06-13T07:27:28.517Z,776.00
2018-06-13T07:28:28.563Z,708.00
2018-06-13T07:29:28.518Z,680.00
2018-06-13T07:30:28.572Z,676.00
2018-06-13T07:31:28.540Z,680.00
2018-06-13T07:32:28.597Z,696.00
2018-06-13T07:33:31.411Z,712.00
2018-06-13T07:34:30.414Z,696.00
2018-06-13T07:35:28.532Z,684.00
2018-06-13T07:36:30.410Z,692.00
2018-06-13T07:37:28.531Z,696.00
2018-06-13T07:38:28.548Z,712.00
2018-06-13T07:39:28.635Z,732.00
2018-06-13T07:40:28.608Z,744.00
2018-06-13T07:41:30.442Z,760.00
2018-06-13T07:42:28.547Z,768.00
2018-06-13T07:43:28.590Z,764.00
2018-06-13T07:44:28.544Z,760.00
2018-06-13T07:45:28.544Z,772.00
2018-06-13T07:46:28.547Z,776.00
2018-06-13T07:47:28.550Z,788.00
2018-06-13T07:48:31.428Z,816.00
2018-06-13T07:49:28.601Z,832.00
2018-06-13T07:50:28.586Z,844.00
2018-06-13T07:51:30.430Z,856.00
2018-06-13T07:52:28.568Z,872.00
2018-06-13T07:53:28.606Z,892.00
2018-06-13T07:54:30.417Z,912.00
2018-06-13T07:55:28.570Z,932.00
2018-06-13T07:56:30.392Z,952.00
2018-06-13T07:57:28.583Z,976.00
2018-06-13T07:58:28.568Z,1012.00
2018-06-13T07:59:28.630Z,1040.00
2018-06-13T08:00:28.580Z,1080.00
2018-06-13T08:01:28.640Z,1124.00
2018-06-13T08:02:28.598Z,1176.00
2018-06-13T08:03:28.650Z,1232.00
2018-06-13T08:04:28.579Z,1280.00
2018-06-13T08:05:28.576Z,1324.00
2018-06-13T08:06:28.576Z,1364.00
2018-06-13T08:07:28.579Z,1392.00
2018-06-13T08:08:28.699Z,1412.00
2018-06-13T08:09:28.585Z,1444.00
2018-06-13T08:10:28.593Z,1468.00
2018-06-13T08:11:28.590Z,1508.00
2018-06-13T08:12:28.587Z,1560.00
2018-06-13T08:13:28.589Z,1628.00
2018-06-13T08:14:28.620Z,1736.00
2018-06-13T08:15:28.596Z,1852.00
2018-06-13T08:16:28.606Z,1968.00
2018-06-13T08:17:28.599Z,2112.00
2018-06-13T08:18:28.610Z,2292.00
2018-06-13T08:19:28.604Z,2468.00
2018-06-13T08:20:28.635Z,2588.00
2018-06-13T08:21:28.610Z,2676.00
2018-06-13T08:22:28.613Z,3016.00
2018-06-13T08:23:28.616Z,3040.00
2018-06-13T08:24:28.615Z,3184.00
2018-06-13T08:25:28.646Z,3728.00
2018-06-13T08:26:28.620Z,3692.00
2018-06-13T08:27:28.630Z,3680.00
2018-06-13T08:28:28.630Z,3720.00
2018-06-13T08:29:28.625Z,3876.00
2018-06-13T08:30:28.626Z,5040.00
2018-06-13T08:31:28.635Z,5544.00
2018-06-13T08:32:28.634Z,4952.00
2018-06-13T08:33:28.640Z,5396.00
2018-06-13T08:34:28.638Z,5040.00
2018-06-13T08:35:28.644Z,4884.00
2018-06-13T08:36:28.646Z,4684.00
2018-06-13T08:37:28.648Z,4572.00
2018-06-13T08:38:28.696Z,4460.00
2018-06-13T08:39:30.407Z,4132.00
2018-06-13T08:40:28.661Z,4732.00
2018-06-13T08:41:28.661Z,4044.00
2018-06-13T08:42:28.668Z,5296.00
2018-06-13T08:43:28.671Z,3804.00
2018-06-13T08:44:28.672Z,3540.00
2018-06-13T08:45:28.683Z,3428.00
2018-06-13T08:46:28.678Z,3336.00
2018-06-13T08:47:28.683Z,3164.00
2018-06-13T08:48:28.773Z,3028.00
2018-06-13T08:49:28.705Z,2980.00
2018-06-13T08:50:28.694Z,2900.00
2018-06-13T08:51:28.699Z,2764.00
2018-06-13T08:52:28.710Z,2584.00
2018-06-13T08:53:28.707Z,2408.00
2018-06-13T08:54:28.717Z,2292.00
2018-06-13T08:55:28.715Z,2144.00
2018-06-13T08:56:28.724Z,2008.00
2018-06-13T08:57:28.727Z,1988.00
2018-06-13T08:58:28.725Z,1968.00
2018-06-13T08:59:28.731Z,1976.00
2018-06-13T09:00:28.740Z,1992.00
2018-06-13T09:01:28.741Z,1988.00
2018-06-13T09:02:28.743Z,1992.00
2018-06-13T09:03:28.749Z,2036.00
2018-06-13T09:04:28.751Z,2064.00
2018-06-13T09:05:28.782Z,2128.00
2018-06-13T09:06:28.757Z,2260.00
2018-06-13T09:07:28.758Z,2516.00
2018-06-13T09:08:28.783Z,2776.00
2018-06-13T09:09:28.767Z,3012.00
2018-06-13T09:10:28.770Z,3208.00
2018-06-13T09:11:28.796Z,3356.00
2018-06-13T09:12:32.407Z,3512.00
2018-06-13T09:13:28.805Z,3672.00
2018-06-13T09:14:28.784Z,3752.00
2018-06-13T09:15:28.812Z,3824.00
2018-06-13T09:16:28.796Z,3956.00
2018-06-13T09:17:28.859Z,3996.00
2018-06-13T09:18:28.815Z,4004.00
2018-06-13T09:19:28.803Z,3988.00
2018-06-13T09:20:28.809Z,3880.00
2018-06-13T09:21:28.813Z,3788.00
2018-06-13T09:22:28.818Z,3668.00
2018-06-13T09:23:28.865Z,3612.00
2018-06-13T09:24:28.817Z,3528.00
2018-06-13T09:25:28.918Z,3392.00
2018-06-13T09:26:28.877Z,3328.00
2018-06-13T09:27:28.834Z,3224.00
2018-06-13T09:28:31.407Z,3200.00
2018-06-13T09:29:36.820Z,3084.00
2018-06-13T09:31:23.362Z,2784.00
2018-06-13T09:32:23.367Z,2616.00
2018-06-13T09:33:23.112Z,2440.00
2018-06-13T09:34:23.021Z,2288.00
2018-06-13T09:35:22.983Z,2152.00
2018-06-13T09:36:23.111Z,2040.00
2018-06-13T09:37:22.959Z,1928.00
2018-06-13T09:38:22.939Z,1844.00
2018-06-13T09:39:23.004Z,1776.00
2018-06-13T09:40:22.965Z,1764.00
2018-06-13T09:41:22.988Z,1804.00
2018-06-13T09:42:22.934Z,1844.00
2018-06-13T09:43:22.954Z,1828.00
2018-06-13T09:44:22.922Z,1868.00
2018-06-13T09:45:22.926Z,1940.00
2018-06-13T09:46:22.955Z,1972.00
2018-06-13T09:47:23.456Z,1992.00
2018-06-13T09:48:22.939Z,2020.00
2018-06-13T09:49:22.937Z,2092.00
2018-06-13T09:50:22.947Z,2168.00
2018-06-13T09:51:22.943Z,2216.00
2018-06-13T09:52:22.957Z,2260.00
2018-06-13T09:53:23.043Z,2312.00
2018-06-13T09:54:28.125Z,2368.00
2018-06-13T09:55:25.064Z,2396.00
2018-06-13T09:56:44.181Z,2428.00
2018-06-13T09:57:22.982Z,2504.00
2018-06-13T09:58:22.966Z,2588.00
2018-06-13T09:59:22.975Z,2680.00
2018-06-13T10:00:23.009Z,2740.00
2018-06-13T10:01:22.998Z,2800.00
2018-06-13T10:02:22.981Z,2844.00
2018-06-13T10:03:22.986Z,2924.00
2018-06-13T10:04:23.019Z,3040.00
2018-06-13T10:05:22.992Z,3176.00
2018-06-13T10:06:22.991Z,3376.00
2018-06-13T10:07:22.997Z,3576.00
2018-06-13T10:08:23.066Z,3888.00
2018-06-13T10:09:23.014Z,4184.00
2018-06-13T10:10:23.006Z,4324.00
2018-06-13T10:11:23.014Z,4560.00
2018-06-13T10:12:23.036Z,5812.00
2018-06-13T10:13:23.033Z,4848.00
2018-06-13T10:14:23.024Z,4616.00
2018-06-13T10:15:23.036Z,4352.00
2018-06-13T10:16:23.028Z,3996.00
2018-06-13T10:17:23.033Z,3388.00
2018-06-13T10:18:23.039Z,2744.00
2018-06-13T10:19:23.038Z,2200.00
2018-06-13T10:20:23.072Z,1796.00
2018-06-13T10:21:23.045Z,1436.00
2018-06-13T10:22:23.052Z,1188.00
2018-06-13T10:23:23.064Z,1036.00
2018-06-13T10:24:23.333Z,944.00
2018-06-13T10:25:23.064Z,880.00
2018-06-13T10:26:23.064Z,844.00
2018-06-13T10:27:23.089Z,848.00
2018-06-13T10:28:23.810Z,856.00
2018-06-13T10:29:23.109Z,868.00
2018-06-13T10:30:23.110Z,884.00
2018-06-13T10:31:23.116Z,880.00
2018-06-13T10:32:23.085Z,876.00
2018-06-13T10:33:23.092Z,880.00
2018-06-13T10:34:23.155Z,892.00
2018-06-13T10:35:23.116Z,904.00
2018-06-13T10:36:23.101Z,920.00
2018-06-13T10:37:23.108Z,944.00
2018-06-13T10:38:23.116Z,972.00
2018-06-13T10:39:23.127Z,996.00
2018-06-13T10:40:23.148Z,1024.00
2018-06-13T10:41:23.118Z,1056.00
2018-06-13T10:42:23.119Z,1068.00
2018-06-13T10:43:23.129Z,1088.00
2018-06-13T10:44:23.198Z,1120.00
2018-06-13T10:45:23.127Z,1172.00
2018-06-13T10:46:23.135Z,1224.00
2018-06-13T10:47:23.133Z,1280.00
2018-06-13T10:48:23.148Z,1340.00
2018-06-13T10:49:23.137Z,1396.00
2018-06-13T10:50:23.206Z,1460.00
2018-06-13T10:51:23.144Z,1532.00
2018-06-13T10:52:23.153Z,1604.00
2018-06-13T10:53:23.150Z,1676.00
2018-06-13T10:54:23.153Z,1720.00
2018-06-13T10:55:23.157Z,1760.00
2018-06-13T10:56:23.156Z,1808.00
2018-06-13T10:57:23.160Z,1844.00
2018-06-13T10:59:17.269Z,1824.00
2018-06-13T11:00:17.139Z,1828.00
2018-06-13T11:02:10.537Z,1916.00
2018-06-13T11:03:10.506Z,2004.00
2018-06-13T11:05:03.736Z,2188.00
2018-06-13T11:06:03.451Z,2332.00
2018-06-13T11:07:56.289Z,2548.00
2018-06-13T11:08:56.267Z,2760.00
2018-06-13T11:10:49.153Z,2780.00
2018-06-13T11:11:49.165Z,2892.00
2018-06-13T11:13:42.072Z,3204.00
2018-06-13T11:14:41.940Z,3320.00
2018-06-13T11:16:34.923Z,3436.00
2018-06-13T11:17:34.926Z,3484.00
2018-06-13T11:19:27.830Z,3572.00
2018-06-13T11:20:27.832Z,3692.00
2018-06-13T11:22:22.248Z,3808.00
2018-06-13T11:23:22.264Z,3996.00
2018-06-13T11:25:15.272Z,4004.00
2018-06-13T11:26:15.208Z,4084.00
2018-06-13T11:28:08.706Z,4248.00
2018-06-13T11:29:08.401Z,4176.00
2018-06-13T11:31:01.199Z,4088.00
2018-06-13T11:32:01.318Z,4068.00
2018-06-13T11:33:54.382Z,3836.00
2018-06-13T11:34:54.240Z,3700.00
2018-06-13T11:36:47.189Z,3388.00
2018-06-13T11:37:47.077Z,3272.00
2018-06-13T11:39:40.066Z,2980.00
2018-06-13T11:40:39.950Z,2888.00
2018-06-13T11:42:32.787Z,2884.00
2018-06-13T11:43:32.971Z,2948.00
2018-06-13T11:45:26.376Z,2984.00
2018-06-13T11:46:26.402Z,3028.00
2018-06-13T11:48:19.259Z,3100.00
2018-06-13T11:49:19.200Z,3076.00
2018-06-13T11:51:12.219Z,3028.00
2018-06-13T11:52:11.969Z,3068.00
2018-06-13T11:54:04.869Z,3112.00
2018-06-13T11:55:05.001Z,3084.00
2018-06-13T11:56:57.951Z,2872.00
2018-06-13T11:57:58.006Z,2760.00
2018-06-13T11:59:50.790Z,2696.00
2018-06-13T12:00:50.700Z,2692.00
2018-06-13T12:02:43.756Z,2768.00
2018-06-13T12:03:43.557Z,2796.00
2018-06-13T12:05:36.465Z,2888.00
2018-06-13T12:06:36.364Z,2956.00
2018-06-13T12:08:30.079Z,3148.00
2018-06-13T12:09:30.684Z,3256.00
2018-06-13T12:11:23.595Z,3420.00
2018-06-13T12:12:23.476Z,3504.00
2018-06-13T12:14:16.819Z,3496.00
2018-06-13T12:15:16.685Z,3504.00
2018-06-13T12:17:10.327Z,3536.00
2018-06-13T12:18:10.210Z,3552.00
2018-06-13T12:20:03.751Z,3592.00
2018-06-13T12:21:03.825Z,3632.00
2018-06-13T12:22:56.312Z,3624.00
2018-06-13T12:23:56.232Z,3696.00
2018-06-13T12:25:49.398Z,3676.00
2018-06-13T12:26:50.231Z,3684.00
2018-06-13T12:28:42.470Z,3500.00
2018-06-13T12:29:43.479Z,3356.00
2018-06-13T12:31:36.340Z,2948.00
2018-06-13T12:32:36.355Z,2788.00
2018-06-13T12:34:28.656Z,2604.00
2018-06-13T12:35:29.651Z,2584.00
2018-06-13T12:37:22.564Z,2612.00
2018-06-13T12:38:22.077Z,2580.00
2018-06-13T12:40:15.618Z,2508.00
2018-06-13T12:41:16.134Z,2552.00
2018-06-13T12:43:12.801Z,2684.00
2018-06-13T12:44:10.499Z,2704.00
2018-06-13T12:46:02.176Z,2572.00
2018-06-13T12:47:02.317Z,2472.00
2018-06-13T12:48:55.764Z,2308.00
2018-06-13T12:49:55.770Z,2200.00
2018-06-13T12:51:48.080Z,1960.00
2018-06-13T12:52:49.103Z,1836.00
2018-06-13T12:54:41.348Z,1628.00
2018-06-13T12:55:41.301Z,1524.00
2018-06-13T12:57:34.857Z,1352.00
2018-06-13T12:58:34.095Z,1276.00
2018-06-13T13:10:49.549Z,1868.00
2018-06-13T13:11:49.205Z,1936.00
2018-06-13T13:13:42.426Z,2064.00
2018-06-13T13:14:42.368Z,2108.00
2018-06-13T13:16:37.349Z,2172.00
2018-06-13T13:17:36.271Z,2232.00
2018-06-13T13:19:29.119Z,2304.00
2018-06-13T13:20:29.245Z,2304.00
2018-06-13T13:22:28.132Z,2288.00
2018-06-13T13:23:21.651Z,2272.00
2018-06-13T13:25:14.543Z,2180.00
2018-06-13T13:26:14.442Z,2116.00
2018-06-13T13:28:07.878Z,1944.00
2018-06-13T13:29:07.893Z,1868.00
2018-06-13T13:31:00.000Z,1760.00
2018-06-13T13:31:59.844Z,1700.00
2018-06-13T13:33:53.127Z,1612.00
2018-06-13T13:34:52.751Z,1544.00
2018-06-13T13:36:45.967Z,1460.00
2018-06-13T13:37:45.709Z,1464.00